Terminal Aerodrome Forecast
Issued by NWS Central Illinois

Home | Current Version | Previous Version | Text Only | Print | Product List | Glossary On
Versions: 1 2 3 4 5 6 7 8 9 10 11 12 13 14 15 16 17 18 19 20
534
FTUS43 KILX 290000 AAA
TAFSPI
TAF AMD
KSPI 290000Z 2900/2924 04010KT P6SM VCTS SCT025CB BKN250
     FM290200 VRB03KT P6SM BKN250
     FM290800 VRB03KT 4SM BR SCT250
     FM291400 09005KT P6SM SCT025
     FM291900 10005KT P6SM VCTS SCT040CB BKN250=

USA.gov is the U.S. government's official web portal to all federal, state and local government web resources and services.